Time;durP1;ratioP1;P1;durP2;ratioP2;P2;SDS_P1;SDS_P2;PMS_P1;PMS_P2;Temp;Humidity;BMP_temperature;BMP_pressure;BME280_temperature;BME280_humidity;BME280_pressure;Samples;Min_cycle;Max_cycle;Signal;HPM_P1;HPM_P2
2022/04/27 00:01:36;;;;;;;10.07;2.80;;;;;;;9.09;82.46;102452.81;5067336;28;20071;-83
2022/04/27 00:04:03;;;;;;;13.75;2.60;;;;;;;8.67;83.93;102429.44;5070821;28;20048;-83
2022/04/27 00:06:30;;;;;;;8.55;2.00;;;;;;;9.15;82.95;102458.00;5071458;28;20168;-83
2022/04/27 00:08:57;;;;;;;10.57;2.42;;;;;;;8.88;82.25;102415.44;5069859;28;20049;-83
2022/04/27 00:11:24;;;;;;;19.45;4.22;;;;;;;8.45;84.85;102420.81;5068843;28;20415;-83
2022/04/27 00:13:50;;;;;;;11.77;2.20;;;;;;;8.80;83.98;102419.84;5070258;28;20048;-83
2022/04/27 00:16:17;;;;;;;10.15;2.70;;;;;;;8.95;82.62;102420.66;5071369;28;20056;-83
2022/04/27 00:18:44;;;;;;;13.50;3.17;;;;;;;8.66;83.55;102446.00;5070474;28;20102;-83
2022/04/27 00:21:11;;;;;;;15.38;2.95;;;;;;;8.70;84.68;102459.91;5069347;28;20049;-83
2022/04/27 00:23:38;;;;;;;15.38;2.90;;;;;;;8.91;84.68;102459.00;5070350;28;20044;-82
2022/04/27 00:26:05;;;;;;;11.45;2.58;;;;;;;8.51;85.17;102452.09;5070471;28;20044;-84
2022/04/27 00:28:32;;;;;;;11.60;2.42;;;;;;;8.73;84.59;102457.31;5075303;28;20051;-84
2022/04/27 00:30:58;;;;;;;9.98;2.25;;;;;;;8.62;82.15;102432.94;5073170;28;20496;-83
2022/04/27 00:33:25;;;;;;;10.25;2.30;;;;;;;8.46;82.79;102399.03;5075882;28;20443;-83
2022/04/27 00:35:52;;;;;;;12.02;2.33;;;;;;;8.63;82.22;102451.22;5075080;28;20048;-83
2022/04/27 00:38:19;;;;;;;8.68;2.45;;;;;;;8.44;79.67;102449.50;5075313;28;20048;-83
2022/04/27 00:40:46;;;;;;;10.68;2.05;;;;;;;8.89;77.76;102445.06;5072954;28;20048;-83
2022/04/27 00:43:14;;;;;;;16.15;2.85;;;;;;;8.51;77.81;102452.09;5074500;28;20516;-84
2022/04/27 00:45:41;;;;;;;13.93;2.30;;;;;;;8.61;77.37;102420.78;5074793;28;20045;-84
2022/04/27 00:48:09;;;;;;;12.10;2.30;;;;;;;8.45;77.54;102414.72;5073823;28;20056;-84
2022/04/27 00:50:37;;;;;;;9.80;3.50;;;;;;;8.40;77.96;102434.69;5073185;28;20048;-82
2022/04/27 00:53:04;;;;;;;14.07;3.90;;;;;;;8.76;77.98;102446.81;5075909;28;20063;-83
2022/04/27 00:55:31;;;;;;;10.23;2.45;;;;;;;8.86;76.01;102438.09;5074405;28;20059;-83
2022/04/27 00:57:59;;;;;;;5.57;2.13;;;;;;;8.52;75.57;102401.63;5073881;28;20402;-83
2022/04/27 01:00:26;;;;;;;11.20;2.35;;;;;;;8.98;75.49;102437.19;5070439;28;20063;-83
2022/04/27 01:02:53;;;;;;;12.95;2.70;;;;;;;8.98;74.91;102451.97;5073826;28;20148;-83
2022/04/27 01:05:21;;;;;;;8.07;2.28;;;;;;;8.90;74.06;102436.34;5073459;28;20044;-83
2022/04/27 01:07:48;;;;;;;11.10;2.17;;;;;;;8.67;74.76;102465.13;5074536;28;20065;-82
2022/04/27 01:10:15;;;;;;;12.02;3.00;;;;;;;8.44;75.03;102429.50;5072639;28;20051;-83
2022/04/27 01:12:42;;;;;;;8.50;2.17;;;;;;;8.70;73.92;102429.44;5074041;28;20070;-83
2022/04/27 01:15:09;;;;;;;11.65;2.30;;;;;;;8.81;74.60;102457.28;5073041;28;20067;-84
2022/04/27 01:17:36;;;;;;;14.45;2.95;;;;;;;8.70;74.43;102447.72;5073093;28;20048;-83
2022/04/27 01:20:05;;;;;;;15.25;3.00;;;;;;;8.67;73.65;102467.75;5072989;28;20047;-83
2022/04/27 01:22:32;;;;;;;10.27;2.35;;;;;;;8.60;72.72;102439.91;5072885;28;20405;-82
2022/04/27 01:24:59;;;;;;;10.32;2.03;;;;;;;8.60;72.28;102419.03;5074080;28;20054;-83
2022/04/27 01:27:25;;;;;;;8.57;2.13;;;;;;;8.89;72.36;102434.63;5074594;28;20053;-82
2022/04/27 01:29:52;;;;;;;12.07;2.20;;;;;;;9.09;71.79;102448.47;5069326;28;20044;-82
2022/04/27 01:32:19;;;;;;;14.82;2.83;;;;;;;8.80;71.36;102471.19;5072795;28;20048;-83
2022/04/27 01:34:45;;;;;;;10.10;2.58;;;;;;;8.80;71.42;102458.13;5073022;28;20055;-83
2022/04/27 01:39:58;;;;;;;10.82;2.42;;;;;;;8.77;71.86;102472.09;5073022;28;20054;-83
2022/04/27 01:42:24;;;;;;;7.07;2.05;;;;;;;8.31;71.84;102389.47;5072993;28;20049;-83
2022/04/27 01:44:51;;;;;;;6.10;1.92;;;;;;;8.51;70.72;102412.94;5074445;28;20405;-83
2022/04/27 01:47:18;;;;;;;8.75;2.45;;;;;;;8.93;71.04;102457.25;5074169;28;20049;-83
2022/04/27 01:49:44;;;;;;;13.48;2.25;;;;;;;9.12;70.41;102469.38;5073144;28;20048;-83
2022/04/27 01:54:57;;;;;;;10.32;2.03;;;;;;;9.07;71.02;102460.66;5073675;28;20048;-83
2022/04/27 01:57:24;;;;;;;14.77;2.35;;;;;;;8.69;71.06;102438.16;5073139;28;20048;-83
2022/04/27 01:59:50;;;;;;;8.05;1.85;;;;;;;8.88;70.85;102425.91;5070815;28;20372;-83
2022/04/27 02:02:17;;;;;;;7.43;2.10;;;;;;;9.17;70.27;102473.69;5072620;28;20079;-84
2022/04/27 02:04:44;;;;;;;8.00;2.10;;;;;;;8.93;70.86;102441.56;5072730;28;20041;-83
2022/04/27 02:07:11;;;;;;;12.05;2.00;;;;;;;9.08;70.87;102451.06;5072765;28;20482;-84
2022/04/27 02:09:38;;;;;;;8.43;2.88;;;;;;;8.74;71.43;102435.53;5073313;28;20045;-83
2022/04/27 02:12:06;;;;;;;10.80;2.30;;;;;;;8.59;71.71;102448.59;5073875;28;20131;-84
2022/04/27 02:14:32;;;;;;;8.68;1.95;;;;;;;8.91;71.95;102465.06;5072273;28;20056;-83
2022/04/27 02:16:59;;;;;;;7.47;2.17;;;;;;;8.86;71.37;102430.25;5072437;28;20052;-83
2022/04/27 02:19:26;;;;;;;4.45;1.98;;;;;;;9.22;71.22;102491.09;5071687;28;20044;-83
2022/04/27 02:21:53;;;;;;;14.95;2.45;;;;;;;8.78;72.10;102483.38;5071573;28;20070;-82
2022/04/27 02:24:20;;;;;;;6.57;1.92;;;;;;;8.76;71.59;102465.09;5072106;28;20537;-83
2022/04/27 02:26:46;;;;;;;12.73;2.70;;;;;;;8.89;72.27;102476.41;5072930;28;20060;-83
2022/04/27 02:29:16;;;;;;;7.78;2.10;;;;;;;9.15;71.91;102486.75;5073512;28;20393;-83
2022/04/27 02:31:43;;;;;;;9.10;1.98;;;;;;;9.15;72.29;102492.00;5071251;28;20060;-83
2022/04/27 02:34:10;;;;;;;10.80;2.35;;;;;;;9.27;72.24;102467.56;5072178;28;20505;-83
2022/04/27 02:36:37;;;;;;;10.00;2.55;;;;;;;9.20;71.95;102479.78;5071995;28;20045;-83
2022/04/27 02:39:04;;;;;;;7.75;1.85;;;;;;;9.48;71.92;102479.66;5065392;28;20049;-83
2022/04/27 02:41:31;;;;;;;11.50;2.20;;;;;;;9.32;71.26;102474.50;5068689;28;20048;-83
2022/04/27 02:43:57;;;;;;;11.52;2.47;;;;;;;9.21;72.48;102468.47;5072133;28;20490;-83
2022/04/27 02:46:24;;;;;;;10.68;2.22;;;;;;;9.51;72.70;102484.88;5073040;28;20073;-83
2022/04/27 02:51:51;;;;;;;9.57;1.80;;;;;;;8.98;72.74;102452.88;5072361;28;20048;-83
2022/04/27 02:54:20;;;;;;;6.07;2.03;;;;;;;8.73;72.69;102441.63;5072168;28;20394;-83
2022/04/27 02:56:48;;;;;;;8.10;2.47;;;;;;;8.85;72.51;102441.59;5071593;28;20041;-83
2022/04/27 02:59:16;;;;;;;13.65;2.17;;;;;;;9.21;72.47;102494.59;5053568;28;20356;-83
2022/04/27 03:01:43;;;;;;;8.05;2.13;;;;;;;9.19;71.98;102496.34;5071029;28;20058;-83
2022/04/27 03:04:10;;;;;;;8.80;2.33;;;;;;;8.80;70.62;102447.69;5072050;28;20402;-82
2022/04/27 03:06:37;;;;;;;11.65;2.42;;;;;;;8.73;72.43;102437.28;5072350;28;20040;-81
2022/04/27 03:09:04;;;;;;;8.73;2.40;;;;;;;8.68;72.76;102479.94;5073180;28;20052;-81
2022/04/27 03:11:31;;;;;;;8.35;2.00;;;;;;;8.62;73.22;102486.03;5072776;28;20052;-81
2022/04/27 03:13:58;;;;;;;13.73;3.30;;;;;;;8.12;72.25;102432.97;5072924;28;20051;-81
2022/04/27 03:16:25;;;;;;;9.52;2.25;;;;;;;8.30;71.89;102426.84;5072809;28;20051;-81
2022/04/27 03:18:51;;;;;;;9.68;2.45;;;;;;;8.45;71.55;102472.16;5072967;28;20049;-82
2022/04/27 03:21:18;;;;;;;11.48;2.38;;;;;;;8.72;71.54;102471.22;5071133;28;20132;-83
2022/04/27 03:23:45;;;;;;;11.75;2.20;;;;;;;8.47;72.55;102442.53;5072899;28;20075;-82
2022/04/27 03:26:12;;;;;;;4.97;1.90;;;;;;;8.67;71.70;102431.19;5073278;28;20051;-82
2022/04/27 03:28:38;;;;;;;8.30;1.80;;;;;;;8.88;71.46;102491.19;5073096;28;20048;-82
2022/04/27 03:31:05;;;;;;;10.70;2.10;;;;;;;8.64;70.40;102428.56;5072306;28;20052;-82
2022/04/27 03:33:32;;;;;;;10.35;2.15;;;;;;;8.61;69.60;102455.56;5071345;28;20053;-83
2022/04/27 03:35:59;;;;;;;13.07;2.40;;;;;;;8.48;70.43;102466.91;5071669;28;20048;-83
2022/04/27 03:38:25;;;;;;;8.85;2.47;;;;;;;8.60;71.11;102473.84;5070922;28;20059;-83
2022/04/27 03:40:52;;;;;;;10.25;1.88;;;;;;;8.58;71.74;102460.81;5071561;28;20059;-83
2022/04/27 03:43:19;;;;;;;9.43;2.15;;;;;;;8.39;70.95;102423.38;5072327;28;20059;-83
2022/04/27 03:45:46;;;;;;;13.35;3.45;;;;;;;8.79;70.92;102472.94;5071388;28;20401;-83
2022/04/27 03:48:13;;;;;;;11.20;2.42;;;;;;;8.03;71.89;102443.41;5071092;28;20076;-83
2022/04/27 03:50:40;;;;;;;14.57;3.67;;;;;;;8.78;72.31;102499.06;5060872;28;20081;-83
2022/04/27 03:53:07;;;;;;;10.13;2.20;;;;;;;8.90;71.58;102483.38;5053163;28;20045;-83
2022/04/27 03:55:35;;;;;;;6.60;2.17;;;;;;;8.59;73.32;102501.72;5050240;28;20055;-83
2022/04/27 03:58:03;;;;;;;10.35;2.55;;;;;;;8.41;73.30;102491.25;5050357;28;20424;-84
2022/04/27 04:00:30;;;;;;;7.60;2.33;;;;;;;8.36;72.46;102462.56;5059979;28;20055;-83
2022/04/27 04:03:01;;;;;;;9.68;2.53;;;;;;;8.31;73.62;102491.25;5069987;28;20057;-83
2022/04/27 04:05:29;;;;;;;9.50;2.00;;;;;;;8.43;73.53;102505.19;5070658;28;20132;-84
2022/04/27 04:07:57;;;;;;;9.32;1.90;;;;;;;8.46;73.19;102459.06;5070455;28;20066;-83
2022/04/27 04:10:24;;;;;;;8.13;1.85;;;;;;;8.37;73.19;102469.50;5069829;28;20051;-83
2022/04/27 04:12:51;;;;;;;8.73;1.90;;;;;;;8.72;72.64;102497.34;5070170;28;20128;-83
2022/04/27 04:15:17;;;;;;;10.93;3.42;;;;;;;8.10;73.77;102472.97;5070293;28;20048;-83
2022/04/27 04:17:47;;;;;;;8.20;1.65;;;;;;;8.49;73.49;102468.66;5070896;28;20049;-83
2022/04/27 04:20:17;;;;;;;11.63;2.80;;;;;;;8.39;73.33;102459.06;5069612;28;20411;-83
2022/04/27 04:22:46;;;;;;;9.57;2.03;;;;;;;8.82;73.66;102506.00;5070227;28;20055;-83
2022/04/27 04:30:45;;;;;;;7.78;2.40;;;;;;;8.21;72.90;102478.19;5069452;28;20132;-83
2022/04/27 04:33:12;;;;;;;9.73;2.53;;;;;;;8.46;72.21;102471.25;5070163;28;20053;-83
2022/04/27 04:35:38;;;;;;;8.50;2.15;;;;;;;8.57;72.25;102487.78;5070130;28;20045;-84
2022/04/27 04:38:05;;;;;;;9.57;2.20;;;;;;;8.77;71.18;102458.16;5069761;28;20064;-84
2022/04/27 04:40:32;;;;;;;6.47;1.50;;;;;;;8.60;71.10;102474.72;5069693;28;20044;-84
2022/04/27 04:42:59;;;;;;;9.38;2.05;;;;;;;8.64;70.88;102467.75;5070702;28;20056;-83
2022/04/27 04:45:26;;;;;;;8.40;2.25;;;;;;;8.74;71.19;102499.06;5070551;28;20049;-83
2022/04/27 04:47:53;;;;;;;9.63;2.10;;;;;;;8.54;71.26;102495.63;5070371;28;20080;-84
2022/04/27 04:50:20;;;;;;;7.30;2.38;;;;;;;8.49;71.16;102493.00;5069758;28;20490;-84
2022/04/27 04:52:47;;;;;;;6.90;1.80;;;;;;;8.60;71.46;102489.53;5071275;28;20132;-83
2022/04/27 04:55:14;;;;;;;8.13;1.60;;;;;;;8.88;71.62;102492.94;5071538;28;20487;-84
2022/04/27 04:57:41;;;;;;;6.45;1.85;;;;;;;8.85;70.98;102503.41;5069798;28;20055;-83
2022/04/27 05:00:09;;;;;;;5.75;1.98;;;;;;;8.73;71.21;102473.84;5066951;28;20050;-83
2022/04/27 05:02:36;;;;;;;6.43;1.70;;;;;;;8.88;71.93;102530.38;5070297;28;20055;-84
2022/04/27 05:05:05;;;;;;;9.88;2.30;;;;;;;8.95;71.26;102505.13;5066936;28;20203;-83
2022/04/27 05:07:33;;;;;;;10.27;1.90;;;;;;;9.24;70.59;102527.69;5058125;28;20049;-83
2022/04/27 05:10:00;;;;;;;9.27;2.03;;;;;;;9.12;70.04;102526.84;5063006;28;20506;-83
2022/04/27 05:12:27;;;;;;;8.10;1.90;;;;;;;9.13;70.71;102519.88;5064225;28;20103;-84
2022/04/27 05:14:53;;;;;;;6.72;2.20;;;;;;;9.05;69.41;102521.66;5064595;28;20509;-84
2022/04/27 05:17:22;;;;;;;5.18;1.50;;;;;;;9.23;71.48;102524.22;5061907;28;20045;-84
2022/04/27 05:19:53;;;;;;;9.35;2.70;;;;;;;9.37;71.81;102529.38;5069676;28;20495;-84
2022/04/27 05:22:20;;;;;;;5.32;1.60;;;;;;;9.45;70.87;102534.56;5063813;28;20040;-84
2022/04/27 05:24:47;;;;;;;7.10;1.73;;;;;;;9.35;71.63;102511.94;5063950;28;20055;-84
2022/04/27 05:27:14;;;;;;;8.38;2.45;;;;;;;9.46;70.90;102531.09;5063796;28;20051;-84
2022/04/27 05:32:27;;;;;;;9.07;2.00;;;;;;;9.37;70.80;102523.31;5064757;28;20057;-84
2022/04/27 05:34:54;;;;;;;8.55;2.00;;;;;;;9.25;75.00;102500.69;5065943;28;20080;-84
2022/04/27 05:37:21;;;;;;;10.90;2.60;;;;;;;8.32;83.67;102526.03;5063486;28;20051;-84
2022/04/27 05:39:48;;;;;;;10.00;2.50;;;;;;;7.87;93.38;102536.41;5068565;28;20044;-82
2022/04/27 05:42:15;;;;;;;10.18;2.03;;;;;;;7.91;97.58;102527.72;5070943;28;20198;-83
2022/04/27 05:44:41;;;;;;;7.47;2.15;;;;;;;8.16;97.44;102502.56;5074206;28;20094;-83
2022/04/27 05:47:08;;;;;;;7.53;1.80;;;;;;;8.63;93.74;102515.63;5072634;28;20047;-83
2022/04/27 05:49:35;;;;;;;5.38;1.70;;;;;;;8.33;96.95;102538.22;5070211;28;20052;-84
2022/04/27 05:52:02;;;;;;;6.82;1.80;;;;;;;8.38;98.63;102533.88;5065480;28;20041;-84
2022/04/27 05:54:29;;;;;;;7.57;2.17;;;;;;;8.46;94.95;102526.06;5071172;28;20549;-84
2022/04/27 05:56:56;;;;;;;5.85;1.85;;;;;;;8.57;97.42;102568.75;5060197;28;20045;-82
2022/04/27 05:59:23;;;;;;;7.22;2.05;;;;;;;8.09;100.00;102533.84;5064882;28;20048;-83
2022/04/27 06:01:49;;;;;;;8.02;2.30;;;;;;;8.09;100.00;102536.44;5064390;28;20047;-83
2022/04/27 06:04:21;;;;;;;6.35;1.90;;;;;;;8.11;100.00;102508.63;5070882;28;20128;-82
2022/04/27 06:06:47;;;;;;;6.78;2.00;;;;;;;8.45;98.14;102513.91;5055435;28;20055;-83
2022/04/27 06:09:14;;;;;;;8.10;2.20;;;;;;;8.40;99.44;102523.44;5058076;28;20055;-84
2022/04/27 06:11:41;;;;;;;9.65;1.88;;;;;;;8.34;100.00;102526.94;5070147;28;20136;-85
2022/04/27 06:14:08;;;;;;;7.20;1.88;;;;;;;8.04;100.00;102518.19;5073112;28;20085;-84
2022/04/27 06:16:35;;;;;;;7.18;2.40;;;;;;;8.06;100.00;102555.59;5044031;28;20052;-83
2022/04/27 06:19:03;;;;;;;5.88;1.85;;;;;;;8.01;100.00;102543.41;5054289;28;20088;-83
2022/04/27 06:21:33;;;;;;;9.23;2.22;;;;;;;7.79;100.00;102522.47;5070869;28;20045;-83
2022/04/27 06:24:00;;;;;;;9.18;2.10;;;;;;;8.30;100.00;102587.81;5072790;28;20052;-83
2022/04/27 06:26:28;;;;;;;7.35;1.88;;;;;;;7.79;100.00;102543.34;5068556;28;20053;-83
2022/04/27 06:28:54;;;;;;;8.52;2.60;;;;;;;7.81;100.00;102559.88;5065347;28;20403;-83
2022/04/27 06:31:21;;;;;;;7.30;1.83;;;;;;;8.35;100.00;102584.31;5063659;28;20041;-83
2022/04/27 06:33:48;;;;;;;10.18;2.42;;;;;;;8.27;100.00;102523.44;5066017;28;20056;-85
2022/04/27 06:36:15;;;;;;;10.48;3.13;;;;;;;7.89;100.00;102558.16;5067749;28;20080;-83
2022/04/27 06:38:42;;;;;;;13.43;2.92;;;;;;;8.21;100.00;102601.72;5069971;28;20132;-82
2022/04/27 06:41:15;;;;;;;11.02;2.08;;;;;;;8.15;100.00;102579.09;5066592;28;20044;-82
2022/04/27 06:43:42;;;;;;;9.35;3.08;;;;;;;8.20;100.00;102542.56;5062774;28;20062;-83
2022/04/27 06:46:09;;;;;;;11.88;2.90;;;;;;;7.95;100.00;102605.13;5065655;28;20115;-82
2022/04/27 06:48:36;;;;;;;6.07;2.15;;;;;;;7.92;100.00;102588.59;5068382;28;20048;-83
2022/04/27 06:51:04;;;;;;;15.32;2.83;;;;;;;7.76;100.00;102596.38;5064368;28;20087;-83
2022/04/27 06:53:30;;;;;;;7.07;2.60;;;;;;;7.66;100.00;102562.44;5072046;28;20044;-82
2022/04/27 06:56:03;;;;;;;8.07;2.42;;;;;;;7.77;100.00;102613.78;5073508;28;20128;-83
2022/04/27 06:58:30;;;;;;;17.08;2.65;;;;;;;8.13;100.00;102582.56;5073646;28;20054;-83
2022/04/27 07:00:57;;;;;;;7.53;2.10;;;;;;;8.71;100.00;102590.50;5069480;28;20044;-83
2022/04/27 07:03:24;;;;;;;5.22;1.73;;;;;;;8.80;100.00;102583.50;5057174;28;20044;-82
2022/04/27 07:05:51;;;;;;;5.72;2.03;;;;;;;8.78;99.67;102569.59;5073718;28;20122;-83
2022/04/27 07:08:18;;;;;;;10.63;2.67;;;;;;;7.75;100.00;102546.81;5072533;28;20398;-83
2022/04/27 07:10:45;;;;;;;7.28;2.15;;;;;;;8.86;100.00;102613.13;5072813;28;20058;-83
2022/04/27 07:13:11;;;;;;;11.48;2.30;;;;;;;8.98;97.14;102613.97;5073438;28;20052;-83
2022/04/27 07:15:38;;;;;;;10.02;2.75;;;;;;;8.90;95.90;102611.38;5073168;28;20048;-83
2022/04/27 07:18:05;;;;;;;8.13;2.20;;;;;;;9.04;95.46;102596.53;5072120;28;20062;-84
2022/04/27 07:20:32;;;;;;;9.13;2.97;;;;;;;8.98;93.04;102627.91;5070765;28;20489;-83
2022/04/27 07:22:59;;;;;;;10.38;2.75;;;;;;;9.49;90.81;102623.47;5073103;28;20070;-83
2022/04/27 07:25:25;;;;;;;9.65;2.15;;;;;;;9.50;89.86;102601.66;5072915;28;20405;-83
2022/04/27 07:27:52;;;;;;;8.77;2.40;;;;;;;9.44;88.63;102575.56;5071441;28;20578;-83
2022/04/27 07:30:20;;;;;;;8.38;2.05;;;;;;;9.62;88.53;102600.75;5070851;28;20048;-83
2022/04/27 07:32:47;;;;;;;7.30;2.17;;;;;;;9.59;87.73;102605.13;5072764;28;20131;-83
2022/04/27 07:35:14;;;;;;;11.52;2.47;;;;;;;9.38;88.39;102600.84;5071009;28;20056;-83
2022/04/27 07:37:40;;;;;;;9.27;3.35;;;;;;;9.25;91.84;102592.16;5074962;28;20047;-84
2022/04/27 07:40:12;;;;;;;8.18;2.65;;;;;;;9.62;89.14;102572.00;5072531;28;20050;-82
2022/04/27 07:42:39;;;;;;;6.28;1.80;;;;;;;10.06;86.16;102617.13;5072184;28;20051;-82
2022/04/27 07:45:07;;;;;;;13.55;2.40;;;;;;;9.86;85.37;102601.53;5072657;28;20469;-82
2022/04/27 07:47:46;;;;;;;9.40;2.33;;;;;;;10.16;86.44;102605.72;5070616;28;20051;-82
2022/04/27 07:50:15;;;;;;;10.40;2.33;;;;;;;10.00;82.79;102588.38;5070894;28;20040;-84
2022/04/27 07:52:42;;;;;;;8.05;2.60;;;;;;;10.08;84.26;102650.25;5072804;28;20069;-84
2022/04/27 07:55:10;;;;;;;9.77;2.67;;;;;;;9.73;83.58;102612.94;5071968;28;20044;-84
2022/04/27 07:57:38;;;;;;;8.52;2.35;;;;;;;9.98;84.76;102650.31;5071070;28;20119;-85
2022/04/27 08:00:08;;;;;;;10.77;2.88;;;;;;;9.49;84.21;102626.09;5069694;28;20052;-83
2022/04/27 08:02:36;;;;;;;6.35;2.17;;;;;;;9.42;84.62;102626.09;5073257;28;20055;-83
2022/04/27 08:05:04;;;;;;;14.75;2.75;;;;;;;9.52;84.22;102645.25;5065188;28;20048;-84
2022/04/27 08:07:48;;;;;;;9.32;2.63;;;;;;;10.44;83.92;102655.34;5070352;28;20051;-83
2022/04/27 08:10:20;;;;;;;8.73;2.25;;;;;;;10.39;78.69;102618.72;5066664;28;20045;-83
2022/04/27 08:12:49;;;;;;;9.15;2.85;;;;;;;9.84;79.57;102627.72;5070956;28;20110;-84
2022/04/27 08:15:18;;;;;;;10.80;2.45;;;;;;;10.63;77.42;102662.19;5071569;28;20452;-84
2022/04/27 08:17:59;;;;;;;8.93;2.72;;;;;;;10.66;78.29;102653.47;5070065;28;20162;-83
2022/04/27 08:23:24;;;;;;;12.35;2.80;;;;;;;10.64;74.69;102655.19;5071731;28;20052;-84
2022/04/27 08:25:51;;;;;;;15.45;3.08;;;;;;;10.33;75.74;102658.03;5070702;28;20128;-84
2022/04/27 08:28:19;;;;;;;13.23;2.88;;;;;;;9.99;73.75;102591.88;5071771;28;20387;-84
2022/04/27 08:30:47;;;;;;;9.30;2.42;;;;;;;10.64;71.36;102598.44;5069635;28;20063;-84
2022/04/27 08:33:15;;;;;;;11.63;2.60;;;;;;;11.15;69.45;102655.63;5070835;28;20048;-84
2022/04/27 08:35:42;;;;;;;10.50;2.90;;;;;;;11.12;68.37;102632.09;5070831;28;20048;-84
2022/04/27 08:38:10;;;;;;;13.57;2.92;;;;;;;11.13;67.97;102644.31;5069525;28;20050;-84
2022/04/27 08:40:40;;;;;;;7.57;2.63;;;;;;;11.67;67.90;102646.38;5069812;28;20070;-84
2022/04/27 08:43:09;;;;;;;11.43;3.17;;;;;;;11.78;65.87;102626.09;5056838;28;20044;-86
2022/04/27 08:45:38;;;;;;;11.68;2.15;;;;;;;12.01;66.63;102642.50;5071008;28;20048;-86
2022/04/27 08:48:05;;;;;;;18.23;2.92;;;;;;;11.60;63.52;102623.72;5051897;28;20136;-86
2022/04/27 08:50:32;;;;;;;8.95;2.00;;;;;;;12.22;62.55;102636.94;5061865;28;20060;-86
2022/04/27 08:52:59;;;;;;;6.85;2.00;;;;;;;11.83;62.23;102602.44;5061239;28;20504;-86
2022/04/27 08:55:27;;;;;;;7.72;1.77;;;;;;;12.55;61.82;102603.16;5061621;28;20055;-82
2022/04/27 08:58:05;;;;;;;8.93;2.25;;;;;;;12.37;60.75;102635.00;5073934;28;20044;-85
2022/04/27 09:00:52;;;;;;;9.15;2.05;;;;;;;12.78;60.73;102662.38;5072578;28;20055;-82
2022/04/27 09:03:33;;;;;;;8.20;1.90;;;;;;;12.48;58.57;102668.09;5075239;28;20048;-84
2022/04/27 09:06:02;;;;;;;9.07;1.75;;;;;;;12.38;60.43;102674.38;5056830;28;20045;-82
2022/04/27 09:08:41;;;;;;;9.73;1.85;;;;;;;12.09;59.21;102630.13;5073793;28;20151;-86
2022/04/27 09:11:20;;;;;;;11.88;2.20;;;;;;;12.02;58.35;102642.44;5074761;28;20049;-86
2022/04/27 09:13:52;;;;;;;10.32;2.25;;;;;;;12.24;59.02;102656.19;5075001;28;20139;-86
2022/04/27 09:16:23;;;;;;;7.07;1.65;;;;;;;12.32;57.59;102672.72;5074435;28;20122;-86
2022/04/27 09:22:01;;;;;;;11.82;2.22;;;;;;;12.35;56.64;102679.66;5073454;28;20048;-85
2022/04/27 09:24:30;;;;;;;7.13;1.98;;;;;;;11.95;57.15;102630.28;5075255;28;20053;-85
2022/04/27 09:27:21;;;;;;;12.82;2.10;;;;;;;12.15;56.95;102700.94;5074582;28;20050;-85
2022/04/27 09:29:54;;;;;;;7.53;2.65;;;;;;;12.17;57.36;102664.16;5073436;28;20056;-85
2022/04/27 09:32:21;;;;;;;11.00;2.47;;;;;;;12.72;55.31;102664.22;5075394;28;20075;-85
2022/04/27 09:34:49;;;;;;;14.18;2.35;;;;;;;12.73;55.99;102694.00;5075441;28;20549;-85
2022/04/27 09:37:19;;;;;;;7.93;2.45;;;;;;;12.30;55.76;102665.72;5075074;28;20045;-86
2022/04/27 09:40:00;;;;;;;9.65;2.22;;;;;;;12.86;56.90;102694.69;5070895;28;20048;-83
2022/04/27 09:42:31;;;;;;;10.63;2.20;;;;;;;12.11;56.32;102668.63;5071787;28;20049;-85
2022/04/27 09:45:13;;;;;;;11.98;2.22;;;;;;;12.88;55.45;102649.06;5074242;28;20053;-85
2022/04/27 09:48:04;;;;;;;10.40;1.75;;;;;;;13.42;54.42;102697.25;5074353;28;20044;-85
2022/04/27 09:50:50;;;;;;;9.88;2.20;;;;;;;12.97;55.11;102690.09;5071730;28;20549;-85
2022/04/27 09:53:18;;;;;;;8.20;1.77;;;;;;;13.10;53.66;102680.25;5073267;28;20048;-85
2022/04/27 09:55:50;;;;;;;8.85;2.10;;;;;;;13.52;54.59;102700.59;5073039;28;20520;-85
2022/04/27 09:58:19;;;;;;;11.27;1.77;;;;;;;13.51;53.23;102705.00;5072740;28;20052;-85
2022/04/27 10:00:48;;;;;;;6.30;1.60;;;;;;;13.62;54.23;102692.50;5073248;28;20052;-85
2022/04/27 10:03:18;;;;;;;9.80;2.08;;;;;;;13.49;53.11;102701.50;5074968;28;20516;-84
2022/04/27 10:05:46;;;;;;;11.90;2.20;;;;;;;13.42;54.70;102694.63;5073067;28;20083;-85
2022/04/27 10:08:14;;;;;;;9.57;1.95;;;;;;;13.48;54.12;102707.69;5073497;28;20067;-85
2022/04/27 10:10:45;;;;;;;12.10;2.45;;;;;;;13.80;53.24;102698.31;5071468;28;20056;-85
2022/04/27 10:13:15;;;;;;;9.73;1.92;;;;;;;13.76;53.56;102683.47;5070253;28;20135;-85
2022/04/27 10:15:44;;;;;;;12.32;1.92;;;;;;;13.58;52.21;102679.41;5062298;28;20131;-85
2022/04/27 10:18:15;;;;;;;9.25;1.42;;;;;;;13.90;51.50;102694.59;5065635;28;20040;-85
2022/04/27 10:20:43;;;;;;;7.85;1.48;;;;;;;13.67;52.31;102656.41;5054592;28;20058;-84
2022/04/27 10:23:24;;;;;;;7.35;1.92;;;;;;;13.69;51.38;102669.56;5052926;28;20051;-85
2022/04/27 10:26:07;;;;;;;9.05;2.50;;;;;;;12.81;53.26;102671.09;5052021;28;20049;-85
2022/04/27 10:28:43;;;;;;;12.60;2.30;;;;;;;13.13;52.65;102648.63;5052040;28;20442;-85
2022/04/27 10:31:10;;;;;;;8.00;1.80;;;;;;;12.79;54.61;102658.88;5064812;28;20044;-84
2022/04/27 10:33:47;;;;;;;12.93;2.20;;;;;;;12.91;53.95;102666.56;5072226;28;20059;-85
2022/04/27 10:36:38;;;;;;;7.40;1.80;;;;;;;12.52;53.41;102661.91;5072468;28;20048;-85
2022/04/27 10:39:11;;;;;;;12.23;2.40;;;;;;;12.49;54.46;102690.84;5071874;28;20040;-85
2022/04/27 10:42:03;;;;;;;11.00;2.42;;;;;;;12.47;55.13;102687.38;5066206;28;20056;-85
2022/04/27 10:44:49;;;;;;;11.40;2.65;;;;;;;12.39;56.30;102688.38;5067534;28;20051;-85
2022/04/27 10:47:20;;;;;;;9.32;2.10;;;;;;;12.33;55.99;102661.28;5071858;28;20406;-84
2022/04/27 10:49:50;;;;;;;9.15;2.33;;;;;;;12.97;54.14;102661.19;5070734;28;20139;-84
2022/04/27 10:52:23;;;;;;;7.05;1.60;;;;;;;13.46;53.13;102680.53;5071363;28;20135;-84
2022/04/27 10:54:49;;;;;;;10.30;2.60;;;;;;;13.36;54.25;102663.19;5071503;28;20071;-85
2022/04/27 10:57:19;;;;;;;11.70;2.30;;;;;;;13.54;52.25;102696.16;5071399;28;20052;-85
2022/04/27 10:59:51;;;;;;;10.52;2.38;;;;;;;13.55;53.16;102690.03;5071607;28;20055;-85
2022/04/27 11:02:36;;;;;;;5.97;1.58;;;;;;;13.45;52.00;102684.03;5071029;28;20044;-85
2022/04/27 11:05:04;;;;;;;8.60;2.00;;;;;;;12.54;53.13;102660.09;5071329;28;20578;-86
2022/04/27 11:07:38;;;;;;;8.30;2.17;;;;;;;12.74;53.77;102643.16;5071419;28;20402;-85
2022/04/27 11:10:15;;;;;;;6.85;2.00;;;;;;;12.78;53.33;102662.38;5070134;28;20052;-85
2022/04/27 11:12:46;;;;;;;7.65;1.88;;;;;;;13.27;53.82;102657.13;5070236;28;20052;-85
2022/04/27 11:15:21;;;;;;;6.47;2.17;;;;;;;13.60;53.43;102672.38;5071011;28;20727;-85
2022/04/27 11:17:55;;;;;;;10.15;2.70;;;;;;;12.62;54.77;102667.88;5072136;28;20051;-85
2022/04/27 11:20:26;;;;;;;7.75;1.85;;;;;;;12.86;55.01;102681.53;5070568;28;20080;-85
2022/04/27 11:22:54;;;;;;;12.40;2.55;;;;;;;12.48;55.03;102659.31;5072170;28;20493;-85
2022/04/27 11:25:26;;;;;;;5.38;1.85;;;;;;;12.88;55.04;102685.00;5070641;28;20438;-85
2022/04/27 11:27:53;;;;;;;8.93;2.50;;;;;;;12.79;55.46;102664.13;5071125;28;20047;-85
2022/04/27 11:30:22;;;;;;;10.25;2.60;;;;;;;12.86;54.05;102656.09;5070945;28;20048;-85
2022/04/27 11:32:50;;;;;;;10.52;2.33;;;;;;;13.02;53.51;102658.50;5071089;28;20413;-85
2022/04/27 11:35:18;;;;;;;10.00;1.95;;;;;;;13.21;53.97;102656.38;5070678;28;20498;-85
2022/04/27 11:37:44;;;;;;;11.20;2.20;;;;;;;13.04;53.56;102664.59;5070888;28;20045;-84
2022/04/27 11:40:17;;;;;;;8.30;1.77;;;;;;;13.24;54.01;102687.91;5068372;28;20494;-85
2022/04/27 11:42:48;;;;;;;11.82;2.55;;;;;;;13.06;54.83;102674.16;5066884;28;20048;-85
2022/04/27 11:45:21;;;;;;;6.32;1.90;;;;;;;12.85;55.16;102669.28;5065366;28;20387;-85
2022/04/27 11:47:56;;;;;;;7.88;2.22;;;;;;;13.06;54.87;102679.44;5070369;28;20127;-85
2022/04/27 11:50:23;;;;;;;11.45;3.15;;;;;;;12.79;54.81;102672.88;5069925;28;20463;-85
2022/04/27 11:53:00;;;;;;;7.88;1.98;;;;;;;13.02;54.73;102695.31;5070899;28;20048;-85
2022/04/27 11:55:28;;;;;;;8.80;1.63;;;;;;;12.89;54.13;102687.63;5070815;28;20636;-85
2022/04/27 11:57:54;;;;;;;7.85;2.05;;;;;;;13.40;53.65;102704.31;5070805;28;20052;-85